Terminal Aerodrome Forecast
Issued by NWS Des Moines, IA

Home | Current Version | Previous Version | Text Only | Print | Product List | Glossary On
Versions: 1 2 3 4 5 6 7 8 9 10 11 12 13 14 15 16 17 18 19 20 21 22 23 24 25 26 27 28 29 30 31
000
FTUS43 KDMX 010014 AAA
TAFDSM
TAF AMD
KDSM 010014Z 0100/0124 15005KT 4SM -SN SCT010 BKN035
     FM010100 16007KT P6SM SCT016 OVC025
     FM011500 25008KT P6SM BKN030
     FM011600 26007KT P6SM SCT015 BKN080
     FM012100 28009G13KT P6SM SCT080=

USA.gov is the U.S. government's official web portal to all federal, state and local government web resources and services.